createdAt,value
2019-03-23T00:03:00.785Z,11.40
2019-03-23T00:07:06.687Z,12.73
2019-03-23T00:11:12.470Z,13.93
2019-03-23T00:15:18.582Z,14.27
2019-03-23T00:19:24.284Z,13.57
2019-03-23T00:23:30.010Z,8.70
2019-03-23T00:27:35.712Z,14.30
2019-03-23T00:31:41.503Z,11.65
2019-03-23T00:35:47.352Z,11.70
2019-03-23T00:39:53.052Z,13.77
2019-03-23T00:43:58.761Z,13.27
2019-03-23T00:48:04.690Z,12.77
2019-03-23T00:52:10.460Z,14.70
2019-03-23T00:56:16.635Z,13.10
2019-03-23T01:00:22.455Z,12.33
2019-03-23T01:04:28.151Z,11.97
2019-03-23T01:08:33.866Z,15.30
2019-03-23T01:12:40.038Z,12.10
2019-03-23T01:16:45.743Z,13.87
2019-03-23T01:20:51.527Z,14.77
2019-03-23T01:24:57.228Z,14.20
2019-03-23T01:29:02.938Z,14.47
2019-03-23T01:33:08.830Z,13.97
2019-03-23T01:37:14.589Z,14.63
2019-03-23T01:41:20.423Z,13.80
2019-03-23T01:45:27.775Z,10.33
2019-03-23T01:49:34.424Z,13.70
2019-03-23T01:53:40.133Z,13.77
2019-03-23T01:57:45.833Z,13.23
2019-03-23T02:01:51.546Z,14.20
2019-03-23T02:05:58.364Z,14.10
2019-03-23T02:10:06.144Z,14.17
2019-03-23T02:14:12.924Z,13.03
2019-03-23T02:18:18.621Z,11.20
2019-03-23T02:22:24.382Z,11.77
2019-03-23T02:26:30.091Z,14.13
2019-03-23T02:30:35.786Z,12.60
2019-03-23T02:34:41.562Z,11.00
2019-03-23T02:38:47.268Z,11.60
2019-03-23T02:42:52.969Z,13.07
2019-03-23T02:46:58.684Z,13.23
2019-03-23T02:51:04.388Z,14.20
2019-03-23T02:55:11.403Z,10.90
2019-03-23T02:59:17.105Z,11.73
2019-03-23T03:03:22.810Z,12.23
2019-03-23T03:07:40.980Z,11.73
2019-03-23T03:11:35.915Z,13.07
2019-03-23T03:15:41.682Z,11.17
2019-03-23T03:19:47.373Z,12.00
2019-03-23T03:23:53.162Z,9.97
2019-03-23T03:27:58.844Z,11.60
2019-03-23T03:32:04.757Z,13.23
2019-03-23T03:36:10.603Z,12.93
2019-03-23T03:40:16.683Z,10.70
2019-03-23T03:44:22.373Z,12.97
2019-03-23T03:48:28.095Z,10.87
2019-03-23T03:52:33.798Z,11.67
2019-03-23T03:56:39.501Z,12.23
2019-03-23T04:00:45.201Z,11.83
2019-03-23T04:04:50.914Z,12.20
2019-03-23T04:08:56.611Z,14.07
2019-03-23T04:13:02.314Z,13.30
2019-03-23T04:17:08.217Z,12.57
2019-03-23T04:21:13.938Z,12.83
2019-03-23T04:25:19.632Z,11.97
2019-03-23T04:29:25.315Z,11.73
2019-03-23T04:33:31.013Z,11.60
2019-03-23T04:37:36.710Z,12.00
2019-03-23T04:41:42.476Z,9.80
2019-03-23T04:45:48.170Z,12.33
2019-03-23T04:49:53.847Z,12.20
2019-03-23T04:53:59.556Z,12.67
2019-03-23T04:58:05.408Z,10.77
2019-03-23T05:02:11.128Z,12.27
2019-03-23T05:06:16.834Z,11.20
2019-03-23T05:10:22.510Z,11.57
2019-03-23T05:14:28.216Z,10.97
2019-03-23T05:18:33.922Z,11.00
2019-03-23T05:22:39.718Z,10.70
2019-03-23T05:26:45.423Z,11.70
2019-03-23T05:30:51.160Z,10.93
2019-03-23T05:34:56.871Z,11.73
2019-03-23T05:39:02.719Z,11.10
2019-03-23T05:43:08.451Z,11.43
2019-03-23T05:47:14.100Z,11.70
2019-03-23T05:51:19.859Z,9.43
2019-03-23T05:55:26.254Z,10.23
2019-03-23T05:59:33.684Z,11.20
2019-03-23T06:03:39.391Z,10.47
2019-03-23T06:07:45.081Z,10.03
2019-03-23T06:11:50.963Z,12.10
2019-03-23T06:15:56.691Z,12.93
2019-03-23T06:20:04.640Z,12.67
2019-03-23T06:24:09.788Z,11.33
2019-03-23T06:28:15.481Z,11.70
2019-03-23T06:32:21.190Z,12.50
2019-03-23T06:36:26.910Z,13.17
2019-03-23T06:40:32.637Z,11.87
2019-03-23T06:44:38.351Z,12.70
2019-03-23T06:48:44.042Z,12.97
2019-03-23T06:52:49.750Z,13.37
2019-03-23T06:56:55.462Z,12.87
2019-03-23T07:01:01.237Z,12.40
2019-03-23T07:05:09.826Z,12.43
2019-03-23T07:09:16.553Z,14.03
2019-03-23T07:13:22.409Z,13.77
2019-03-23T07:17:28.121Z,14.00
2019-03-23T07:21:33.830Z,13.03
2019-03-23T07:25:39.521Z,11.17
2019-03-23T07:29:45.218Z,13.13
2019-03-23T07:34:02.253Z,14.27
2019-03-23T07:38:07.997Z,13.70
2019-03-23T07:42:13.705Z,11.93
2019-03-23T07:46:19.446Z,13.77
2019-03-23T07:50:26.225Z,13.87
2019-03-23T07:54:31.946Z,15.17
2019-03-23T07:58:37.724Z,15.47
2019-03-23T08:02:43.557Z,15.20
2019-03-23T08:06:49.273Z,15.55
2019-03-23T08:10:54.996Z,11.90
2019-03-23T08:15:00.777Z,15.43
2019-03-23T08:19:06.506Z,16.07
2019-03-23T08:23:12.194Z,14.93
2019-03-23T08:27:17.963Z,16.20
2019-03-23T08:31:23.684Z,15.10
2019-03-23T08:35:29.399Z,14.27
2019-03-23T08:39:35.110Z,16.10
2019-03-23T08:43:40.806Z,13.90
2019-03-23T08:47:46.478Z,15.57
2019-03-23T08:51:52.268Z,15.13
2019-03-23T08:55:58.014Z,18.50
2019-03-23T09:00:07.541Z,15.33
2019-03-23T09:04:13.469Z,17.80
2019-03-23T09:08:19.170Z,15.67
2019-03-23T09:12:24.879Z,17.63
2019-03-23T09:16:30.583Z,20.03
2019-03-23T09:20:36.305Z,18.67
2019-03-23T09:24:42.014Z,17.17
2019-03-23T09:28:47.786Z,17.67
2019-03-23T09:32:53.506Z,18.10
2019-03-23T09:36:59.212Z,18.70
2019-03-23T09:41:05.071Z,19.40
2019-03-23T09:45:10.976Z,20.33
2019-03-23T09:49:16.699Z,15.97
2019-03-23T09:53:22.397Z,19.47
2019-03-23T09:57:28.094Z,19.57
2019-03-23T10:01:33.812Z,19.23
2019-03-23T10:05:39.494Z,19.50
2019-03-23T10:09:45.197Z,15.07
2019-03-23T10:13:50.895Z,19.93
2019-03-23T10:17:56.616Z,21.30
2019-03-23T10:22:02.328Z,18.97
2019-03-23T10:26:08.203Z,20.27
2019-03-23T10:30:14.139Z,20.93
2019-03-23T10:34:19.875Z,22.85
2019-03-23T10:38:25.626Z,21.50
2019-03-23T10:42:31.328Z,21.93
2019-03-23T10:46:37.029Z,18.77
2019-03-23T10:50:42.733Z,23.73
2019-03-23T10:54:48.524Z,24.27
2019-03-23T10:58:55.217Z,22.73
2019-03-23T11:03:00.891Z,23.53
2019-03-23T11:07:06.590Z,11.50
2019-03-23T11:11:12.576Z,22.30
2019-03-23T11:15:18.268Z,21.60
2019-03-23T11:19:24.017Z,24.85
2019-03-23T11:23:29.709Z,17.93
2019-03-23T11:27:35.549Z,22.13
2019-03-23T11:31:41.283Z,19.60
2019-03-23T11:35:57.264Z,21.23
2019-03-23T11:39:54.663Z,25.80
2019-03-23T11:44:00.357Z,22.70
2019-03-23T11:48:06.138Z,20.00
2019-03-23T11:52:11.899Z,22.07
2019-03-23T11:56:17.703Z,16.60
2019-03-23T12:00:24.194Z,17.70
2019-03-23T12:04:29.901Z,20.57
2019-03-23T12:08:35.609Z,21.73
2019-03-23T12:12:41.596Z,17.77
2019-03-23T12:16:47.341Z,21.40
2019-03-23T12:20:53.010Z,21.47
2019-03-23T12:24:58.729Z,22.93
2019-03-23T12:29:04.476Z,19.93
2019-03-23T12:33:10.345Z,14.83
2019-03-23T12:37:16.033Z,21.80
2019-03-23T12:41:23.275Z,23.23
2019-03-23T12:45:29.280Z,23.50
2019-03-23T12:49:35.051Z,21.48
2019-03-23T12:53:40.738Z,21.83
2019-03-23T12:57:46.426Z,17.93
2019-03-23T13:01:52.131Z,22.87
2019-03-23T13:05:57.855Z,18.57
2019-03-23T13:10:04.763Z,19.40
2019-03-23T13:14:10.615Z,19.00
2019-03-23T13:18:26.703Z,20.63
2019-03-23T13:22:23.679Z,14.80
2019-03-23T13:26:29.427Z,18.33
2019-03-23T13:30:35.168Z,17.47
2019-03-23T13:34:40.838Z,20.70
2019-03-23T13:38:46.623Z,18.97
2019-03-23T13:42:52.350Z,19.50
2019-03-23T13:46:58.064Z,18.90
2019-03-23T13:51:03.765Z,21.53
2019-03-23T13:55:13.157Z,19.50
2019-03-23T13:59:18.856Z,15.03
2019-03-23T14:03:24.579Z,19.60
2019-03-23T14:07:30.327Z,22.10
2019-03-23T14:11:36.036Z,21.70
2019-03-23T14:15:41.850Z,19.30
2019-03-23T14:19:47.560Z,20.97
2019-03-23T14:23:55.171Z,25.13
2019-03-23T14:28:00.678Z,21.40
2019-03-23T14:32:06.413Z,18.73
2019-03-23T14:36:12.346Z,17.03
2019-03-23T14:40:18.057Z,20.93
2019-03-23T14:44:23.755Z,18.77
2019-03-23T14:48:29.455Z,19.67
2019-03-23T14:52:36.467Z,18.40
2019-03-23T14:56:42.269Z,20.57
2019-03-23T15:00:48.025Z,706.10
2019-03-23T15:04:53.732Z,140.13
2019-03-23T15:08:59.511Z,999.90
2019-03-23T15:13:05.222Z,999.90
2019-03-23T15:17:11.066Z,880.95
2019-03-23T15:21:16.784Z,786.67
2019-03-23T15:25:22.617Z,999.90
2019-03-23T15:29:28.361Z,942.35
2019-03-23T15:33:34.088Z,509.20
2019-03-23T15:37:39.809Z,104.17
2019-03-23T15:41:46.609Z,61.10
2019-03-23T15:45:52.316Z,28.43
2019-03-23T15:49:58.037Z,20.10
2019-03-23T15:54:03.716Z,16.97
2019-03-23T15:58:09.469Z,25.17
2019-03-23T16:02:15.391Z,17.67
2019-03-23T16:06:21.121Z,17.75
2019-03-23T16:10:26.880Z,21.07
2019-03-23T16:14:32.571Z,20.13
2019-03-23T16:18:38.312Z,24.02
2019-03-23T16:22:44.029Z,45.03
2019-03-23T16:26:49.768Z,36.28
2019-03-23T16:30:55.501Z,22.40
2019-03-23T16:35:01.265Z,18.47
2019-03-23T16:39:07.716Z,16.27
2019-03-23T16:43:19.452Z,36.00
2019-03-23T16:47:25.165Z,14.80
2019-03-23T16:51:30.850Z,20.17
2019-03-23T16:55:36.557Z,14.90
2019-03-23T16:59:42.264Z,11.87
2019-03-23T17:03:47.964Z,14.70
2019-03-23T17:07:53.674Z,10.50
2019-03-23T17:11:59.412Z,14.83
2019-03-23T17:16:05.180Z,52.13
2019-03-23T17:20:11.357Z,21.50
2019-03-23T17:24:17.145Z,62.80
2019-03-23T17:28:22.997Z,19.33
2019-03-23T17:32:28.765Z,59.10
2019-03-23T17:36:34.472Z,18.63
2019-03-23T17:40:40.199Z,34.57
2019-03-23T17:44:46.259Z,19.63
2019-03-23T17:48:52.996Z,19.60
2019-03-23T17:52:58.663Z,22.00
2019-03-23T17:57:04.389Z,21.83
2019-03-23T18:01:19.384Z,22.70
2019-03-23T18:05:21.041Z,22.00
2019-03-23T18:21:14.502Z,27.07
2019-03-23T18:36:43.381Z,22.73
2019-03-23T18:40:52.618Z,20.48
2019-03-23T18:45:19.441Z,19.97
2019-03-23T18:49:25.223Z,20.57
2019-03-23T18:53:30.991Z,20.43
2019-03-23T18:57:36.711Z,19.63
2019-03-23T19:01:42.426Z,20.37
2019-03-23T19:05:48.215Z,21.77
2019-03-23T19:09:53.920Z,21.07
2019-03-23T19:13:59.631Z,23.03
2019-03-23T19:18:06.883Z,21.97
2019-03-23T19:22:18.762Z,21.20
2019-03-23T19:26:24.491Z,20.07
2019-03-23T19:30:30.275Z,23.97
2019-03-23T19:34:35.992Z,22.33
2019-03-23T19:38:41.682Z,21.83
2019-03-23T19:42:47.399Z,22.33
2019-03-23T19:46:53.108Z,21.70
2019-03-23T19:50:58.807Z,22.17
2019-03-23T19:55:07.275Z,21.57
2019-03-23T19:59:12.978Z,23.47
2019-03-23T20:03:19.294Z,23.00
2019-03-23T20:07:32.710Z,22.37
2019-03-23T20:11:32.622Z,22.97
2019-03-23T20:15:38.407Z,21.40
2019-03-23T20:19:44.173Z,22.43
2019-03-23T20:23:51.301Z,21.60
2019-03-23T20:27:57.113Z,22.50
2019-03-23T20:32:17.637Z,22.90
2019-03-23T20:36:23.398Z,23.23
2019-03-23T20:40:29.180Z,23.87
2019-03-23T20:44:35.046Z,23.90
2019-03-23T20:48:41.077Z,23.33
2019-03-23T20:52:47.397Z,24.23
2019-03-23T20:56:53.105Z,24.80
2019-03-23T21:00:58.802Z,24.27
2019-03-23T21:05:05.537Z,25.43
2019-03-23T21:09:11.696Z,25.90
2019-03-23T21:13:17.409Z,25.40
2019-03-23T21:17:23.119Z,25.20
2019-03-23T21:21:28.798Z,26.90
2019-03-23T21:25:34.527Z,27.07
2019-03-23T21:29:41.237Z,25.77
2019-03-23T21:33:47.031Z,27.50
2019-03-23T21:37:52.786Z,27.87
2019-03-23T21:41:58.504Z,28.30
2019-03-23T21:46:04.338Z,28.47
2019-03-23T21:50:11.232Z,29.20
2019-03-23T21:54:17.371Z,30.37
2019-03-23T21:58:24.183Z,30.00
2019-03-23T22:02:29.886Z,33.63
2019-03-23T22:06:35.574Z,30.70
2019-03-23T22:10:41.282Z,30.60
2019-03-23T22:14:46.976Z,29.13
2019-03-23T22:18:52.690Z,30.17
2019-03-23T22:22:58.375Z,30.00
2019-03-23T22:28:16.090Z,29.20
2019-03-23T22:37:17.545Z,30.70
2019-03-23T22:47:18.932Z,30.97
2019-03-23T22:52:18.567Z,31.73
2019-03-23T22:57:48.019Z,31.97
2019-03-23T23:01:53.791Z,32.37
2019-03-23T23:05:59.542Z,31.55
2019-03-23T23:10:07.151Z,31.17
2019-03-23T23:14:13.146Z,31.60
2019-03-23T23:18:18.921Z,31.47
2019-03-23T23:22:24.614Z,32.33
2019-03-23T23:26:30.322Z,32.70
2019-03-23T23:30:36.213Z,33.17
2019-03-23T23:34:41.889Z,33.60
2019-03-23T23:38:47.587Z,32.67
2019-03-23T23:42:53.274Z,33.90
2019-03-23T23:46:59.003Z,34.20
2019-03-23T23:51:04.723Z,34.53
2019-03-23T23:55:12.519Z,33.57
2019-03-23T23:59:18.216Z,34.90
